CYYZ/YYZ METAR and TAF weather

Enter ICAO airport designator
Station Type Date Time Source
CYYZ METAR 2022/01/29 13:00 UTC NOAA

CYYZ 291300Z 35009KT 15SM SKC M21/M26 A3023 RMK SLP256


Station Type Date Time Source
CYYZ Decoded METAR 2022/01/29 13:00 UTC NOAA

Toronto Pearson Int'L. Ont., Canada (CYYZ) 43-40N 079-38W 173M
Jan 29, 2022 - 08:00 AM EST / 2022.01.29 1300 UTC
Wind: from the N (350 degrees) at 10 MPH (9 KT):0
Visibility: 15 mile(s):0
Sky conditions: clear
Temperature: -5 F (-21 C)
Windchill: -22 F (-30 C):2
Dew Point: -14 F (-26 C)
Relative Humidity: 64%
Pressure (altimeter): 30.23 in. Hg (1023 hPa)
ob: CYYZ 291300Z 35009KT 15SM SKC M21/M26 A3023 RMK SLP256
cycle: 13

Station Type Date Time Source
CYYZ TAF 2022/01/29 12:42 UTC NOAA

TAF CYYZ 291140Z 2912/3018 36010KT P6SM SKC
FM300900 26005KT P6SM SCT140
BECMG 3014/3016 21010KT
RMK NXT FCST BY 291500Z

Example: see airport list